sensor_id;sensor_type;location;lat;lon;timestamp;P1;durP1;ratioP1;P2;durP2;ratioP2
6105;SDS011;3083;51.508;7.966;2023-01-30T00:01:40;33.23;;;13.60;;
6105;SDS011;3083;51.508;7.966;2023-01-30T00:04:10;37.60;;;12.37;;
6105;SDS011;3083;51.508;7.966;2023-01-30T00:06:41;34.30;;;12.40;;
6105;SDS011;3083;51.508;7.966;2023-01-30T00:09:09;34.93;;;11.53;;
6105;SDS011;3083;51.508;7.966;2023-01-30T00:11:40;35.00;;;12.53;;
6105;SDS011;3083;51.508;7.966;2023-01-30T00:14:09;30.97;;;13.27;;
6105;SDS011;3083;51.508;7.966;2023-01-30T00:16:36;32.13;;;12.50;;
6105;SDS011;3083;51.508;7.966;2023-01-30T00:19:04;36.47;;;12.20;;
6105;SDS011;3083;51.508;7.966;2023-01-30T00:21:31;29.63;;;10.60;;
6105;SDS011;3083;51.508;7.966;2023-01-30T00:23:58;33.53;;;12.50;;
6105;SDS011;3083;51.508;7.966;2023-01-30T00:26:27;37.97;;;14.00;;
6105;SDS011;3083;51.508;7.966;2023-01-30T00:28:54;39.63;;;14.97;;
6105;SDS011;3083;51.508;7.966;2023-01-30T00:31:23;34.50;;;13.70;;
6105;SDS011;3083;51.508;7.966;2023-01-30T00:33:51;35.80;;;13.63;;
6105;SDS011;3083;51.508;7.966;2023-01-30T00:36:18;37.77;;;14.90;;
6105;SDS011;3083;51.508;7.966;2023-01-30T00:38:45;34.53;;;13.00;;
6105;SDS011;3083;51.508;7.966;2023-01-30T00:41:12;32.33;;;13.00;;
6105;SDS011;3083;51.508;7.966;2023-01-30T00:43:41;42.23;;;14.70;;
6105;SDS011;3083;51.508;7.966;2023-01-30T00:46:28;35.37;;;13.03;;
6105;SDS011;3083;51.508;7.966;2023-01-30T00:49:13;41.10;;;13.10;;
6105;SDS011;3083;51.508;7.966;2023-01-30T00:51:40;38.27;;;13.83;;
6105;SDS011;3083;51.508;7.966;2023-01-30T00:54:08;41.13;;;13.90;;
6105;SDS011;3083;51.508;7.966;2023-01-30T00:56:35;45.70;;;14.93;;
6105;SDS011;3083;51.508;7.966;2023-01-30T00:59:02;35.53;;;12.97;;
6105;SDS011;3083;51.508;7.966;2023-01-30T01:01:30;38.63;;;14.93;;
6105;SDS011;3083;51.508;7.966;2023-01-30T01:03:57;42.50;;;14.77;;
6105;SDS011;3083;51.508;7.966;2023-01-30T01:06:24;30.33;;;13.30;;
6105;SDS011;3083;51.508;7.966;2023-01-30T01:08:51;42.70;;;14.30;;
6105;SDS011;3083;51.508;7.966;2023-01-30T01:11:18;43.47;;;14.97;;
6105;SDS011;3083;51.508;7.966;2023-01-30T01:13:50;41.57;;;12.67;;
6105;SDS011;3083;51.508;7.966;2023-01-30T01:16:17;37.63;;;12.50;;
6105;SDS011;3083;51.508;7.966;2023-01-30T01:18:46;38.73;;;14.17;;
6105;SDS011;3083;51.508;7.966;2023-01-30T01:21:13;37.00;;;12.73;;
6105;SDS011;3083;51.508;7.966;2023-01-30T01:23:42;44.10;;;15.00;;
6105;SDS011;3083;51.508;7.966;2023-01-30T01:26:11;38.00;;;13.40;;
6105;SDS011;3083;51.508;7.966;2023-01-30T01:28:40;37.17;;;14.13;;
6105;SDS011;3083;51.508;7.966;2023-01-30T01:31:08;30.97;;;11.87;;
6105;SDS011;3083;51.508;7.966;2023-01-30T01:33:36;41.10;;;15.90;;
6105;SDS011;3083;51.508;7.966;2023-01-30T01:36:05;38.27;;;14.97;;
6105;SDS011;3083;51.508;7.966;2023-01-30T01:38:35;41.47;;;15.73;;
6105;SDS011;3083;51.508;7.966;2023-01-30T01:41:06;30.43;;;12.43;;
6105;SDS011;3083;51.508;7.966;2023-01-30T01:43:35;37.60;;;14.37;;
6105;SDS011;3083;51.508;7.966;2023-01-30T01:46:05;33.80;;;14.13;;
6105;SDS011;3083;51.508;7.966;2023-01-30T01:48:36;37.37;;;14.10;;
6105;SDS011;3083;51.508;7.966;2023-01-30T01:51:07;38.93;;;14.03;;
6105;SDS011;3083;51.508;7.966;2023-01-30T01:53:38;48.70;;;15.70;;
6105;SDS011;3083;51.508;7.966;2023-01-30T01:56:08;39.43;;;14.50;;
6105;SDS011;3083;51.508;7.966;2023-01-30T01:58:38;37.53;;;14.83;;
6105;SDS011;3083;51.508;7.966;2023-01-30T02:01:08;38.60;;;13.90;;
6105;SDS011;3083;51.508;7.966;2023-01-30T02:03:36;33.20;;;12.27;;
6105;SDS011;3083;51.508;7.966;2023-01-30T02:06:07;36.27;;;13.70;;
6105;SDS011;3083;51.508;7.966;2023-01-30T02:08:36;35.37;;;13.67;;
6105;SDS011;3083;51.508;7.966;2023-01-30T02:11:07;34.20;;;12.60;;
6105;SDS011;3083;51.508;7.966;2023-01-30T02:13:36;35.60;;;15.73;;
6105;SDS011;3083;51.508;7.966;2023-01-30T02:16:04;32.20;;;11.97;;
6105;SDS011;3083;51.508;7.966;2023-01-30T02:18:33;26.53;;;12.03;;
6105;SDS011;3083;51.508;7.966;2023-01-30T02:21:13;30.33;;;11.37;;
6105;SDS011;3083;51.508;7.966;2023-01-30T02:24:15;31.30;;;11.43;;
6105;SDS011;3083;51.508;7.966;2023-01-30T02:33:13;32.37;;;11.17;;
6105;SDS011;3083;51.508;7.966;2023-01-30T02:35:50;38.43;;;12.10;;
6105;SDS011;3083;51.508;7.966;2023-01-30T02:38:26;32.33;;;11.37;;
6105;SDS011;3083;51.508;7.966;2023-01-30T02:41:06;25.40;;;10.83;;
6105;SDS011;3083;51.508;7.966;2023-01-30T02:43:43;29.30;;;11.40;;
6105;SDS011;3083;51.508;7.966;2023-01-30T02:46:18;28.37;;;11.67;;
6105;SDS011;3083;51.508;7.966;2023-01-30T02:48:52;29.03;;;10.77;;
6105;SDS011;3083;51.508;7.966;2023-01-30T02:51:25;31.70;;;10.90;;
6105;SDS011;3083;51.508;7.966;2023-01-30T02:53:55;29.03;;;10.87;;
6105;SDS011;3083;51.508;7.966;2023-01-30T02:56:23;29.23;;;11.00;;
6105;SDS011;3083;51.508;7.966;2023-01-30T02:58:51;29.50;;;10.43;;
6105;SDS011;3083;51.508;7.966;2023-01-30T03:01:31;27.23;;;10.77;;
6105;SDS011;3083;51.508;7.966;2023-01-30T03:04:18;35.20;;;11.53;;
6105;SDS011;3083;51.508;7.966;2023-01-30T03:07:02;32.17;;;12.50;;
6105;SDS011;3083;51.508;7.966;2023-01-30T03:09:47;28.80;;;13.13;;
6105;SDS011;3083;51.508;7.966;2023-01-30T03:12:25;26.53;;;10.77;;
6105;SDS011;3083;51.508;7.966;2023-01-30T03:15:07;29.10;;;11.70;;
6105;SDS011;3083;51.508;7.966;2023-01-30T03:17:43;30.77;;;13.60;;
6105;SDS011;3083;51.508;7.966;2023-01-30T03:20:18;33.20;;;12.60;;
6105;SDS011;3083;51.508;7.966;2023-01-30T03:22:48;33.93;;;13.73;;
6105;SDS011;3083;51.508;7.966;2023-01-30T03:25:16;36.90;;;13.37;;
6105;SDS011;3083;51.508;7.966;2023-01-30T03:27:47;44.03;;;15.07;;
6105;SDS011;3083;51.508;7.966;2023-01-30T03:30:17;36.03;;;14.00;;
6105;SDS011;3083;51.508;7.966;2023-01-30T03:32:44;42.93;;;15.90;;
6105;SDS011;3083;51.508;7.966;2023-01-30T03:35:13;38.37;;;14.17;;
6105;SDS011;3083;51.508;7.966;2023-01-30T03:37:41;44.90;;;14.77;;
6105;SDS011;3083;51.508;7.966;2023-01-30T03:40:09;46.07;;;15.00;;
6105;SDS011;3083;51.508;7.966;2023-01-30T03:42:37;42.80;;;16.83;;
6105;SDS011;3083;51.508;7.966;2023-01-30T03:45:05;43.20;;;16.83;;
6105;SDS011;3083;51.508;7.966;2023-01-30T03:47:33;31.77;;;13.10;;
6105;SDS011;3083;51.508;7.966;2023-01-30T03:50:00;50.60;;;15.80;;
6105;SDS011;3083;51.508;7.966;2023-01-30T03:52:29;39.87;;;15.37;;
6105;SDS011;3083;51.508;7.966;2023-01-30T03:54:55;40.93;;;14.93;;
6105;SDS011;3083;51.508;7.966;2023-01-30T03:57:23;43.87;;;17.80;;
6105;SDS011;3083;51.508;7.966;2023-01-30T03:59:49;46.80;;;15.13;;
6105;SDS011;3083;51.508;7.966;2023-01-30T04:02:16;38.87;;;16.13;;
6105;SDS011;3083;51.508;7.966;2023-01-30T04:04:47;40.37;;;15.87;;
6105;SDS011;3083;51.508;7.966;2023-01-30T04:07:16;45.00;;;16.40;;
6105;SDS011;3083;51.508;7.966;2023-01-30T04:09:45;42.53;;;17.10;;
6105;SDS011;3083;51.508;7.966;2023-01-30T04:12:12;40.33;;;16.10;;
6105;SDS011;3083;51.508;7.966;2023-01-30T04:14:48;39.87;;;13.80;;
6105;SDS011;3083;51.508;7.966;2023-01-30T04:17:15;40.87;;;16.83;;
6105;SDS011;3083;51.508;7.966;2023-01-30T04:19:45;33.23;;;12.23;;
6105;SDS011;3083;51.508;7.966;2023-01-30T04:22:12;35.77;;;14.57;;
6105;SDS011;3083;51.508;7.966;2023-01-30T04:24:39;34.23;;;13.33;;
6105;SDS011;3083;51.508;7.966;2023-01-30T04:27:07;45.87;;;14.50;;
6105;SDS011;3083;51.508;7.966;2023-01-30T04:29:34;40.97;;;14.83;;
6105;SDS011;3083;51.508;7.966;2023-01-30T04:32:01;43.50;;;15.20;;
6105;SDS011;3083;51.508;7.966;2023-01-30T04:34:30;38.00;;;14.30;;
6105;SDS011;3083;51.508;7.966;2023-01-30T04:36:57;38.83;;;15.50;;
6105;SDS011;3083;51.508;7.966;2023-01-30T04:39:24;36.47;;;14.83;;
6105;SDS011;3083;51.508;7.966;2023-01-30T04:41:51;41.27;;;16.10;;
6105;SDS011;3083;51.508;7.966;2023-01-30T04:44:23;31.70;;;13.97;;
6105;SDS011;3083;51.508;7.966;2023-01-30T04:46:52;39.83;;;15.93;;
6105;SDS011;3083;51.508;7.966;2023-01-30T04:49:20;30.57;;;12.47;;
6105;SDS011;3083;51.508;7.966;2023-01-30T04:51:47;33.03;;;13.83;;
6105;SDS011;3083;51.508;7.966;2023-01-30T04:54:17;37.00;;;13.70;;
6105;SDS011;3083;51.508;7.966;2023-01-30T04:56:46;34.10;;;13.03;;
6105;SDS011;3083;51.508;7.966;2023-01-30T04:59:13;32.30;;;12.90;;
6105;SDS011;3083;51.508;7.966;2023-01-30T05:01:41;34.17;;;13.03;;
6105;SDS011;3083;51.508;7.966;2023-01-30T05:04:08;35.53;;;13.77;;
6105;SDS011;3083;51.508;7.966;2023-01-30T05:06:35;32.30;;;13.07;;
6105;SDS011;3083;51.508;7.966;2023-01-30T05:09:03;34.63;;;12.37;;
6105;SDS011;3083;51.508;7.966;2023-01-30T05:11:30;34.53;;;13.90;;
6105;SDS011;3083;51.508;7.966;2023-01-30T05:14:03;32.27;;;12.97;;
6105;SDS011;3083;51.508;7.966;2023-01-30T05:16:35;37.03;;;13.87;;
6105;SDS011;3083;51.508;7.966;2023-01-30T05:19:06;35.77;;;13.80;;
6105;SDS011;3083;51.508;7.966;2023-01-30T05:21:34;29.43;;;13.00;;
6105;SDS011;3083;51.508;7.966;2023-01-30T05:24:01;32.63;;;11.47;;
6105;SDS011;3083;51.508;7.966;2023-01-30T05:26:28;29.67;;;11.90;;
6105;SDS011;3083;51.508;7.966;2023-01-30T05:28:59;39.23;;;12.87;;
6105;SDS011;3083;51.508;7.966;2023-01-30T05:31:26;30.53;;;13.33;;
6105;SDS011;3083;51.508;7.966;2023-01-30T05:33:53;32.73;;;12.03;;
6105;SDS011;3083;51.508;7.966;2023-01-30T05:36:22;28.73;;;11.17;;
6105;SDS011;3083;51.508;7.966;2023-01-30T05:38:49;33.90;;;12.77;;
6105;SDS011;3083;51.508;7.966;2023-01-30T05:41:16;33.47;;;12.40;;
6105;SDS011;3083;51.508;7.966;2023-01-30T05:43:47;28.53;;;10.63;;
6105;SDS011;3083;51.508;7.966;2023-01-30T05:46:14;28.03;;;10.57;;
6105;SDS011;3083;51.508;7.966;2023-01-30T05:48:42;25.23;;;11.43;;
6105;SDS011;3083;51.508;7.966;2023-01-30T05:51:15;25.07;;;10.00;;
6105;SDS011;3083;51.508;7.966;2023-01-30T05:53:46;23.40;;;10.00;;
6105;SDS011;3083;51.508;7.966;2023-01-30T05:56:15;24.67;;;10.30;;
6105;SDS011;3083;51.508;7.966;2023-01-30T05:58:42;24.20;;;9.90;;
6105;SDS011;3083;51.508;7.966;2023-01-30T06:01:10;25.33;;;10.50;;
6105;SDS011;3083;51.508;7.966;2023-01-30T06:03:38;26.00;;;9.87;;
6105;SDS011;3083;51.508;7.966;2023-01-30T06:06:14;23.37;;;9.77;;
6105;SDS011;3083;51.508;7.966;2023-01-30T06:08:43;22.00;;;8.97;;
6105;SDS011;3083;51.508;7.966;2023-01-30T06:11:13;25.03;;;9.47;;
6105;SDS011;3083;51.508;7.966;2023-01-30T06:13:40;23.77;;;9.30;;
6105;SDS011;3083;51.508;7.966;2023-01-30T06:16:10;23.10;;;9.43;;
6105;SDS011;3083;51.508;7.966;2023-01-30T06:18:38;19.50;;;8.03;;
6105;SDS011;3083;51.508;7.966;2023-01-30T06:21:06;24.77;;;8.90;;
6105;SDS011;3083;51.508;7.966;2023-01-30T06:23:33;19.33;;;8.73;;
6105;SDS011;3083;51.508;7.966;2023-01-30T06:26:02;20.30;;;8.00;;
6105;SDS011;3083;51.508;7.966;2023-01-30T06:28:29;18.30;;;8.20;;
6105;SDS011;3083;51.508;7.966;2023-01-30T06:30:56;23.40;;;9.03;;
6105;SDS011;3083;51.508;7.966;2023-01-30T06:33:25;18.70;;;8.70;;
6105;SDS011;3083;51.508;7.966;2023-01-30T06:35:52;19.20;;;8.13;;
6105;SDS011;3083;51.508;7.966;2023-01-30T06:38:19;21.73;;;9.47;;
6105;SDS011;3083;51.508;7.966;2023-01-30T06:40:48;22.50;;;8.10;;
6105;SDS011;3083;51.508;7.966;2023-01-30T06:43:17;20.17;;;8.70;;
6105;SDS011;3083;51.508;7.966;2023-01-30T06:45:45;18.07;;;7.77;;
6105;SDS011;3083;51.508;7.966;2023-01-30T06:48:12;16.77;;;7.13;;
6105;SDS011;3083;51.508;7.966;2023-01-30T06:50:41;24.30;;;8.93;;
6105;SDS011;3083;51.508;7.966;2023-01-30T06:53:09;24.73;;;10.70;;
6105;SDS011;3083;51.508;7.966;2023-01-30T06:55:38;28.10;;;10.73;;
6105;SDS011;3083;51.508;7.966;2023-01-30T06:58:09;28.37;;;11.93;;
6105;SDS011;3083;51.508;7.966;2023-01-30T07:00:40;28.70;;;11.90;;
6105;SDS011;3083;51.508;7.966;2023-01-30T07:03:09;40.00;;;14.80;;
6105;SDS011;3083;51.508;7.966;2023-01-30T07:05:36;31.93;;;13.20;;
6105;SDS011;3083;51.508;7.966;2023-01-30T07:08:04;33.57;;;13.30;;
6105;SDS011;3083;51.508;7.966;2023-01-30T07:10:33;39.57;;;15.00;;
6105;SDS011;3083;51.508;7.966;2023-01-30T07:13:00;33.60;;;13.93;;
6105;SDS011;3083;51.508;7.966;2023-01-30T07:15:27;36.07;;;14.17;;
6105;SDS011;3083;51.508;7.966;2023-01-30T07:17:58;38.70;;;14.67;;
6105;SDS011;3083;51.508;7.966;2023-01-30T07:20:26;32.67;;;13.20;;
6105;SDS011;3083;51.508;7.966;2023-01-30T07:22:54;38.00;;;14.80;;
6105;SDS011;3083;51.508;7.966;2023-01-30T07:25:23;45.63;;;17.10;;
6105;SDS011;3083;51.508;7.966;2023-01-30T07:27:51;51.63;;;16.13;;
6105;SDS011;3083;51.508;7.966;2023-01-30T07:30:21;37.03;;;14.17;;
6105;SDS011;3083;51.508;7.966;2023-01-30T07:32:51;40.77;;;14.27;;
6105;SDS011;3083;51.508;7.966;2023-01-30T07:35:21;42.87;;;17.00;;
6105;SDS011;3083;51.508;7.966;2023-01-30T07:37:49;36.83;;;15.50;;
6105;SDS011;3083;51.508;7.966;2023-01-30T07:40:17;40.23;;;15.90;;
6105;SDS011;3083;51.508;7.966;2023-01-30T07:42:54;41.77;;;15.93;;
6105;SDS011;3083;51.508;7.966;2023-01-30T07:45:22;41.33;;;16.07;;
6105;SDS011;3083;51.508;7.966;2023-01-30T07:47:49;37.43;;;14.93;;
6105;SDS011;3083;51.508;7.966;2023-01-30T07:50:16;40.57;;;15.07;;
6105;SDS011;3083;51.508;7.966;2023-01-30T07:52:45;43.47;;;15.27;;
6105;SDS011;3083;51.508;7.966;2023-01-30T07:55:12;57.07;;;15.17;;
6105;SDS011;3083;51.508;7.966;2023-01-30T07:57:44;35.23;;;15.77;;
6105;SDS011;3083;51.508;7.966;2023-01-30T08:00:11;38.03;;;15.40;;
6105;SDS011;3083;51.508;7.966;2023-01-30T08:02:39;50.20;;;15.30;;
6105;SDS011;3083;51.508;7.966;2023-01-30T08:05:06;48.10;;;15.60;;
6105;SDS011;3083;51.508;7.966;2023-01-30T08:07:34;42.33;;;15.63;;
6105;SDS011;3083;51.508;7.966;2023-01-30T08:10:02;42.30;;;15.37;;
6105;SDS011;3083;51.508;7.966;2023-01-30T08:12:31;42.30;;;14.57;;
6105;SDS011;3083;51.508;7.966;2023-01-30T08:14:58;41.43;;;17.40;;
6105;SDS011;3083;51.508;7.966;2023-01-30T08:17:25;45.50;;;18.33;;
6105;SDS011;3083;51.508;7.966;2023-01-30T08:19:52;40.13;;;16.27;;
6105;SDS011;3083;51.508;7.966;2023-01-30T08:22:19;47.10;;;16.67;;
6105;SDS011;3083;51.508;7.966;2023-01-30T08:24:46;46.23;;;17.67;;
6105;SDS011;3083;51.508;7.966;2023-01-30T08:27:14;35.67;;;14.10;;
6105;SDS011;3083;51.508;7.966;2023-01-30T08:29:42;34.37;;;13.17;;
6105;SDS011;3083;51.508;7.966;2023-01-30T08:32:09;34.00;;;12.50;;
6105;SDS011;3083;51.508;7.966;2023-01-30T08:34:36;33.33;;;12.27;;
6105;SDS011;3083;51.508;7.966;2023-01-30T08:37:03;31.80;;;12.43;;
6105;SDS011;3083;51.508;7.966;2023-01-30T08:39:30;33.43;;;11.67;;
6105;SDS011;3083;51.508;7.966;2023-01-30T08:41:57;25.00;;;10.63;;
6105;SDS011;3083;51.508;7.966;2023-01-30T08:44:25;16.00;;;5.00;;
6105;SDS011;3083;51.508;7.966;2023-01-30T08:46:55;16.73;;;5.00;;
6105;SDS011;3083;51.508;7.966;2023-01-30T08:49:22;10.87;;;3.90;;
6105;SDS011;3083;51.508;7.966;2023-01-30T08:51:49;11.63;;;3.70;;
6105;SDS011;3083;51.508;7.966;2023-01-30T08:54:16;9.40;;;3.97;;
6105;SDS011;3083;51.508;7.966;2023-01-30T08:56:43;8.90;;;4.50;;
6105;SDS011;3083;51.508;7.966;2023-01-30T08:59:10;15.43;;;6.00;;
6105;SDS011;3083;51.508;7.966;2023-01-30T09:01:38;13.83;;;6.60;;
6105;SDS011;3083;51.508;7.966;2023-01-30T09:04:05;11.83;;;5.47;;
6105;SDS011;3083;51.508;7.966;2023-01-30T09:06:32;12.80;;;6.10;;
6105;SDS011;3083;51.508;7.966;2023-01-30T09:09:02;14.83;;;6.40;;
6105;SDS011;3083;51.508;7.966;2023-01-30T09:11:29;21.57;;;7.10;;
6105;SDS011;3083;51.508;7.966;2023-01-30T09:13:56;11.87;;;5.27;;
6105;SDS011;3083;51.508;7.966;2023-01-30T09:16:25;14.20;;;5.30;;
6105;SDS011;3083;51.508;7.966;2023-01-30T09:18:54;12.00;;;4.50;;
6105;SDS011;3083;51.508;7.966;2023-01-30T09:21:21;17.93;;;4.83;;
6105;SDS011;3083;51.508;7.966;2023-01-30T09:23:54;12.40;;;4.10;;
6105;SDS011;3083;51.508;7.966;2023-01-30T09:26:21;9.83;;;3.87;;
6105;SDS011;3083;51.508;7.966;2023-01-30T09:28:48;17.27;;;5.10;;
6105;SDS011;3083;51.508;7.966;2023-01-30T09:31:15;22.97;;;5.17;;
6105;SDS011;3083;51.508;7.966;2023-01-30T09:33:42;18.67;;;3.97;;
6105;SDS011;3083;51.508;7.966;2023-01-30T09:36:13;9.40;;;3.93;;
6105;SDS011;3083;51.508;7.966;2023-01-30T09:38:40;19.83;;;4.00;;
6105;SDS011;3083;51.508;7.966;2023-01-30T09:41:23;13.43;;;3.60;;
6105;SDS011;3083;51.508;7.966;2023-01-30T09:47:34;16.93;;;4.17;;
6105;SDS011;3083;51.508;7.966;2023-01-30T09:50:18;10.20;;;2.77;;
6105;SDS011;3083;51.508;7.966;2023-01-30T09:53:04;21.00;;;3.53;;
6105;SDS011;3083;51.508;7.966;2023-01-30T09:55:38;9.83;;;3.63;;
6105;SDS011;3083;51.508;7.966;2023-01-30T09:58:12;12.93;;;3.03;;
6105;SDS011;3083;51.508;7.966;2023-01-30T10:00:42;14.20;;;3.80;;
6105;SDS011;3083;51.508;7.966;2023-01-30T10:03:12;15.60;;;3.63;;
6105;SDS011;3083;51.508;7.966;2023-01-30T10:05:41;15.13;;;3.20;;
6105;SDS011;3083;51.508;7.966;2023-01-30T10:11:16;13.13;;;3.20;;
6105;SDS011;3083;51.508;7.966;2023-01-30T10:14:05;28.10;;;2.80;;
6105;SDS011;3083;51.508;7.966;2023-01-30T10:16:51;12.17;;;2.73;;
6105;SDS011;3083;51.508;7.966;2023-01-30T10:22:21;23.43;;;4.53;;
6105;SDS011;3083;51.508;7.966;2023-01-30T10:25:05;13.80;;;4.30;;
6105;SDS011;3083;51.508;7.966;2023-01-30T10:27:45;20.83;;;6.10;;
6105;SDS011;3083;51.508;7.966;2023-01-30T10:30:15;12.33;;;3.57;;
6105;SDS011;3083;51.508;7.966;2023-01-30T10:32:45;25.33;;;3.50;;
6105;SDS011;3083;51.508;7.966;2023-01-30T10:35:21;17.90;;;3.60;;
6105;SDS011;3083;51.508;7.966;2023-01-30T10:37:52;20.03;;;4.50;;
6105;SDS011;3083;51.508;7.966;2023-01-30T10:40:27;17.83;;;4.03;;
6105;SDS011;3083;51.508;7.966;2023-01-30T10:43:00;21.50;;;3.90;;
6105;SDS011;3083;51.508;7.966;2023-01-30T10:45:33;10.33;;;3.10;;
6105;SDS011;3083;51.508;7.966;2023-01-30T10:48:11;12.03;;;3.50;;
6105;SDS011;3083;51.508;7.966;2023-01-30T10:50:49;10.90;;;2.80;;
6105;SDS011;3083;51.508;7.966;2023-01-30T10:53:20;11.13;;;2.63;;
6105;SDS011;3083;51.508;7.966;2023-01-30T10:55:56;8.43;;;2.40;;
6105;SDS011;3083;51.508;7.966;2023-01-30T10:58:31;28.40;;;3.80;;
6105;SDS011;3083;51.508;7.966;2023-01-30T11:01:06;9.60;;;3.07;;
6105;SDS011;3083;51.508;7.966;2023-01-30T11:03:38;10.13;;;3.10;;
6105;SDS011;3083;51.508;7.966;2023-01-30T11:06:12;17.50;;;3.40;;
6105;SDS011;3083;51.508;7.966;2023-01-30T11:08:43;12.93;;;2.80;;
6105;SDS011;3083;51.508;7.966;2023-01-30T11:11:25;13.00;;;2.70;;
6105;SDS011;3083;51.508;7.966;2023-01-30T11:14:00;12.53;;;2.97;;
6105;SDS011;3083;51.508;7.966;2023-01-30T11:16:29;17.03;;;2.87;;
6105;SDS011;3083;51.508;7.966;2023-01-30T11:18:57;14.70;;;3.67;;
6105;SDS011;3083;51.508;7.966;2023-01-30T11:21:27;9.10;;;2.80;;
6105;SDS011;3083;51.508;7.966;2023-01-30T11:23:56;10.57;;;2.37;;
6105;SDS011;3083;51.508;7.966;2023-01-30T11:26:33;12.73;;;2.40;;
6105;SDS011;3083;51.508;7.966;2023-01-30T11:29:15;7.90;;;2.20;;
6105;SDS011;3083;51.508;7.966;2023-01-30T11:31:52;16.30;;;2.97;;
6105;SDS011;3083;51.508;7.966;2023-01-30T11:34:20;10.50;;;3.10;;
6105;SDS011;3083;51.508;7.966;2023-01-30T11:36:48;9.97;;;2.60;;
6105;SDS011;3083;51.508;7.966;2023-01-30T11:39:19;11.30;;;2.40;;
6105;SDS011;3083;51.508;7.966;2023-01-30T11:42:02;11.10;;;3.20;;
6105;SDS011;3083;51.508;7.966;2023-01-30T11:44:30;11.70;;;3.03;;
6105;SDS011;3083;51.508;7.966;2023-01-30T11:47:02;13.70;;;3.33;;
6105;SDS011;3083;51.508;7.966;2023-01-30T11:49:35;12.80;;;2.60;;
6105;SDS011;3083;51.508;7.966;2023-01-30T11:52:05;11.87;;;2.23;;
6105;SDS011;3083;51.508;7.966;2023-01-30T11:54:35;16.40;;;3.10;;
6105;SDS011;3083;51.508;7.966;2023-01-30T11:57:08;9.17;;;2.77;;
6105;SDS011;3083;51.508;7.966;2023-01-30T11:59:39;14.87;;;2.93;;
6105;SDS011;3083;51.508;7.966;2023-01-30T12:02:14;14.37;;;3.07;;
6105;SDS011;3083;51.508;7.966;2023-01-30T12:04:48;13.77;;;2.70;;
6105;SDS011;3083;51.508;7.966;2023-01-30T12:07:19;16.17;;;2.67;;
6105;SDS011;3083;51.508;7.966;2023-01-30T12:09:48;13.03;;;2.67;;
6105;SDS011;3083;51.508;7.966;2023-01-30T12:12:27;14.83;;;3.30;;
6105;SDS011;3083;51.508;7.966;2023-01-30T12:15:04;12.30;;;3.77;;
6105;SDS011;3083;51.508;7.966;2023-01-30T12:17:39;12.20;;;2.80;;
6105;SDS011;3083;51.508;7.966;2023-01-30T12:20:13;13.40;;;3.03;;
6105;SDS011;3083;51.508;7.966;2023-01-30T12:22:56;13.80;;;3.33;;
6105;SDS011;3083;51.508;7.966;2023-01-30T12:25:31;14.23;;;2.80;;
6105;SDS011;3083;51.508;7.966;2023-01-30T12:28:09;13.37;;;2.70;;
6105;SDS011;3083;51.508;7.966;2023-01-30T12:30:41;10.07;;;3.43;;
6105;SDS011;3083;51.508;7.966;2023-01-30T12:33:14;14.40;;;3.10;;
6105;SDS011;3083;51.508;7.966;2023-01-30T12:35:47;11.33;;;2.77;;
6105;SDS011;3083;51.508;7.966;2023-01-30T12:38:25;9.00;;;2.90;;
6105;SDS011;3083;51.508;7.966;2023-01-30T12:41:09;8.00;;;2.00;;
6105;SDS011;3083;51.508;7.966;2023-01-30T12:43:53;13.13;;;2.43;;
6105;SDS011;3083;51.508;7.966;2023-01-30T12:46:37;7.07;;;1.90;;
6105;SDS011;3083;51.508;7.966;2023-01-30T12:49:26;9.13;;;2.30;;
6105;SDS011;3083;51.508;7.966;2023-01-30T12:52:19;8.43;;;2.40;;
6105;SDS011;3083;51.508;7.966;2023-01-30T12:55:00;18.50;;;3.30;;
6105;SDS011;3083;51.508;7.966;2023-01-30T12:57:31;12.20;;;3.93;;
6105;SDS011;3083;51.508;7.966;2023-01-30T13:00:12;10.50;;;2.93;;
6105;SDS011;3083;51.508;7.966;2023-01-30T13:02:56;9.57;;;3.53;;
6105;SDS011;3083;51.508;7.966;2023-01-30T13:05:36;10.80;;;2.43;;
6105;SDS011;3083;51.508;7.966;2023-01-30T13:08:14;11.70;;;2.83;;
6105;SDS011;3083;51.508;7.966;2023-01-30T13:10:54;13.10;;;2.43;;
6105;SDS011;3083;51.508;7.966;2023-01-30T13:13:29;9.50;;;3.17;;
6105;SDS011;3083;51.508;7.966;2023-01-30T13:16:05;19.00;;;3.40;;
6105;SDS011;3083;51.508;7.966;2023-01-30T13:18:44;10.83;;;2.80;;
6105;SDS011;3083;51.508;7.966;2023-01-30T13:21:17;14.53;;;2.97;;
6105;SDS011;3083;51.508;7.966;2023-01-30T13:23:59;15.57;;;2.50;;
6105;SDS011;3083;51.508;7.966;2023-01-30T13:26:41;8.87;;;2.07;;
6105;SDS011;3083;51.508;7.966;2023-01-30T13:29:12;14.47;;;2.53;;
6105;SDS011;3083;51.508;7.966;2023-01-30T13:31:45;13.93;;;3.53;;
6105;SDS011;3083;51.508;7.966;2023-01-30T13:34:19;10.40;;;2.27;;
6105;SDS011;3083;51.508;7.966;2023-01-30T13:36:54;14.10;;;2.40;;
6105;SDS011;3083;51.508;7.966;2023-01-30T13:39:32;11.43;;;3.00;;
6105;SDS011;3083;51.508;7.966;2023-01-30T13:42:04;13.00;;;2.87;;
6105;SDS011;3083;51.508;7.966;2023-01-30T13:44:38;9.03;;;2.47;;
6105;SDS011;3083;51.508;7.966;2023-01-30T13:47:13;10.03;;;2.80;;
6105;SDS011;3083;51.508;7.966;2023-01-30T13:49:50;7.67;;;3.03;;
6105;SDS011;3083;51.508;7.966;2023-01-30T13:52:26;8.83;;;2.10;;
6105;SDS011;3083;51.508;7.966;2023-01-30T13:55:00;10.83;;;2.57;;
6105;SDS011;3083;51.508;7.966;2023-01-30T13:57:36;7.27;;;2.23;;
6105;SDS011;3083;51.508;7.966;2023-01-30T14:00:24;10.80;;;2.10;;
6105;SDS011;3083;51.508;7.966;2023-01-30T14:05:58;8.30;;;2.20;;
6105;SDS011;3083;51.508;7.966;2023-01-30T14:08:32;12.30;;;2.80;;
6105;SDS011;3083;51.508;7.966;2023-01-30T14:11:30;11.47;;;2.27;;
6105;SDS011;3083;51.508;7.966;2023-01-30T14:14:04;15.00;;;2.43;;
6105;SDS011;3083;51.508;7.966;2023-01-30T14:16:45;10.13;;;2.20;;
6105;SDS011;3083;51.508;7.966;2023-01-30T14:19:29;14.30;;;2.60;;
6105;SDS011;3083;51.508;7.966;2023-01-30T14:22:18;14.40;;;2.57;;
6105;SDS011;3083;51.508;7.966;2023-01-30T14:37:28;18.70;;;3.30;;
6105;SDS011;3083;51.508;7.966;2023-01-30T14:40:33;11.37;;;2.60;;
6105;SDS011;3083;51.508;7.966;2023-01-30T14:46:01;14.63;;;2.50;;
6105;SDS011;3083;51.508;7.966;2023-01-30T14:48:30;13.57;;;3.07;;
6105;SDS011;3083;51.508;7.966;2023-01-30T14:51:14;14.73;;;2.30;;
6105;SDS011;3083;51.508;7.966;2023-01-30T14:53:53;8.30;;;1.90;;
6105;SDS011;3083;51.508;7.966;2023-01-30T14:56:41;18.27;;;2.53;;
6105;SDS011;3083;51.508;7.966;2023-01-30T14:59:20;20.37;;;3.27;;
6105;SDS011;3083;51.508;7.966;2023-01-30T15:02:01;9.83;;;2.90;;
6105;SDS011;3083;51.508;7.966;2023-01-30T15:04:32;11.37;;;2.13;;
6105;SDS011;3083;51.508;7.966;2023-01-30T15:07:08;11.27;;;2.43;;
6105;SDS011;3083;51.508;7.966;2023-01-30T15:09:53;17.13;;;3.37;;
6105;SDS011;3083;51.508;7.966;2023-01-30T15:12:30;7.70;;;2.10;;
6105;SDS011;3083;51.508;7.966;2023-01-30T15:15:18;8.90;;;2.83;;
6105;SDS011;3083;51.508;7.966;2023-01-30T15:17:55;9.20;;;2.83;;
6105;SDS011;3083;51.508;7.966;2023-01-30T15:20:47;10.30;;;2.80;;
6105;SDS011;3083;51.508;7.966;2023-01-30T15:23:35;10.10;;;2.93;;
6105;SDS011;3083;51.508;7.966;2023-01-30T15:26:22;20.60;;;5.90;;
6105;SDS011;3083;51.508;7.966;2023-01-30T15:28:58;22.53;;;5.20;;
6105;SDS011;3083;51.508;7.966;2023-01-30T15:31:42;21.60;;;3.97;;
6105;SDS011;3083;51.508;7.966;2023-01-30T15:34:19;9.83;;;2.60;;
6105;SDS011;3083;51.508;7.966;2023-01-30T15:36:46;11.00;;;3.30;;
6105;SDS011;3083;51.508;7.966;2023-01-30T15:39:17;9.67;;;3.10;;
6105;SDS011;3083;51.508;7.966;2023-01-30T15:41:47;12.90;;;3.23;;
6105;SDS011;3083;51.508;7.966;2023-01-30T15:47:24;14.77;;;3.67;;
6105;SDS011;3083;51.508;7.966;2023-01-30T15:50:16;16.07;;;3.70;;
6105;SDS011;3083;51.508;7.966;2023-01-30T15:52:44;13.37;;;2.77;;
6105;SDS011;3083;51.508;7.966;2023-01-30T15:55:16;10.60;;;2.07;;
6105;SDS011;3083;51.508;7.966;2023-01-30T15:57:48;22.77;;;3.43;;
6105;SDS011;3083;51.508;7.966;2023-01-30T16:00:22;26.27;;;4.27;;
6105;SDS011;3083;51.508;7.966;2023-01-30T16:02:52;8.90;;;3.47;;